Time;durP1;ratioP1;P1;durP2;ratioP2;P2;SDS_P1;SDS_P2;PMS_P1;PMS_P2;Temp;Humidity;BMP_temperature;BMP_pressure;BME280_temperature;BME280_humidity;BME280_pressure;Samples;Min_cycle;Max_cycle;Signal;HPM_P1;HPM_P2
2023/10/22 00:00:48;;;;;;;5.90;1.02;;;13.60;99.90;;;;;;5016901;28;20033;-73
2023/10/22 00:03:14;;;;;;;3.92;1.17;;;13.60;99.90;;;;;;5016883;28;20095;-72
2023/10/22 00:05:40;;;;;;;5.70;1.23;;;13.60;99.90;;;;;;5033561;28;20124;-72
2023/10/22 00:08:06;;;;;;;6.53;1.25;;;13.60;99.90;;;;;;5033245;28;20038;-72
2023/10/22 00:10:31;;;;;;;6.60;1.25;;;13.60;99.90;;;;;;5033268;28;20049;-72
2023/10/22 00:12:57;;;;;;;8.45;1.08;;;13.60;99.90;;;;;;5033213;28;20048;-72
2023/10/22 00:15:26;;;;;;;5.72;1.00;;;13.60;99.90;;;;;;5033176;28;20045;-73
2023/10/22 00:17:53;;;;;;;6.13;1.30;;;13.60;99.90;;;;;;5016612;28;20042;-72
2023/10/22 00:20:19;;;;;;;4.65;0.85;;;13.60;99.90;;;;;;5032993;28;20048;-72
2023/10/22 00:22:45;;;;;;;6.18;1.38;;;13.60;99.90;;;;;;5033300;28;20037;-72
2023/10/22 00:25:11;;;;;;;5.85;1.33;;;13.60;99.90;;;;;;5033023;28;20045;-72
2023/10/22 00:27:36;;;;;;;4.18;1.00;;;13.60;99.90;;;;;;5033178;28;20029;-72
2023/10/22 00:30:02;;;;;;;6.60;1.05;;;13.50;99.90;;;;;;5032863;28;20498;-72
2023/10/22 00:32:28;;;;;;;5.38;1.15;;;13.50;99.90;;;;;;5033100;28;20045;-72
2023/10/22 00:34:54;;;;;;;4.30;0.77;;;13.50;99.90;;;;;;5032775;28;20486;-72
2023/10/22 00:37:20;;;;;;;5.75;1.13;;;13.50;99.90;;;;;;5032719;28;20038;-72
2023/10/22 00:39:46;;;;;;;4.88;1.15;;;13.60;99.90;;;;;;5032679;28;20045;-72
2023/10/22 00:42:12;;;;;;;2.38;0.70;;;13.60;99.90;;;;;;5032602;28;20095;-72
2023/10/22 00:44:37;;;;;;;4.40;0.90;;;13.50;99.90;;;;;;5032620;28;20037;-72
2023/10/22 00:47:05;;;;;;;7.60;1.20;;;13.50;99.90;;;;;;5016073;28;20136;-72
2023/10/22 00:49:31;;;;;;;4.97;0.88;;;13.50;99.90;;;;;;5016186;28;20120;-72
2023/10/22 00:51:57;;;;;;;8.77;1.40;;;13.50;99.90;;;;;;5032495;28;20045;-72
2023/10/22 00:54:25;;;;;;;5.97;1.08;;;13.50;99.90;;;;;;5032489;28;20048;-72
2023/10/22 00:56:51;;;;;;;3.88;0.80;;;13.50;99.90;;;;;;5033486;28;20041;-72
2023/10/22 00:59:17;;;;;;;5.03;0.88;;;13.40;99.90;;;;;;5032266;28;20571;-72
2023/10/22 01:01:43;;;;;;;8.05;1.00;;;13.40;99.90;;;;;;5032354;28;20091;-72
2023/10/22 01:04:09;;;;;;;4.20;1.10;;;13.40;99.90;;;;;;5031701;28;20474;-72
2023/10/22 01:06:36;;;;;;;6.15;0.93;;;13.40;99.90;;;;;;5032277;28;20501;-72
2023/10/22 01:09:02;;;;;;;4.70;0.70;;;13.40;99.90;;;;;;5016066;28;20445;-72
2023/10/22 01:11:28;;;;;;;5.32;0.90;;;13.30;99.90;;;;;;5032139;28;20052;-72
2023/10/22 01:13:53;;;;;;;3.15;0.70;;;13.40;99.90;;;;;;5015679;28;20049;-72
2023/10/22 01:16:19;;;;;;;5.13;0.80;;;13.30;99.90;;;;;;5032135;28;20033;-72
2023/10/22 01:18:44;;;;;;;5.20;0.90;;;13.30;99.90;;;;;;5032159;28;20037;-72
2023/10/22 01:21:11;;;;;;;5.53;1.38;;;13.30;99.90;;;;;;5031983;28;20091;-72
2023/10/22 01:23:37;;;;;;;4.30;0.80;;;13.30;99.90;;;;;;5032254;28;20099;-72
2023/10/22 01:26:05;;;;;;;4.88;1.10;;;13.20;99.90;;;;;;5032216;28;20084;-72
2023/10/22 01:28:31;;;;;;;5.53;1.10;;;13.20;99.90;;;;;;5031906;28;20580;-73
2023/10/22 01:30:57;;;;;;;5.82;0.80;;;13.10;99.90;;;;;;5031934;28;20128;-73
2023/10/22 01:33:23;;;;;;;5.70;1.33;;;13.10;99.90;;;;;;5031902;28;20041;-72
2023/10/22 01:35:48;;;;;;;4.93;1.13;;;13.00;99.90;;;;;;5032135;28;20045;-72
2023/10/22 01:38:14;;;;;;;5.68;0.90;;;13.00;99.90;;;;;;5015614;28;20049;-72
2023/10/22 01:40:40;;;;;;;7.22;1.15;;;12.90;99.90;;;;;;5031742;28;20044;-72
2023/10/22 01:43:05;;;;;;;4.65;1.00;;;12.90;99.90;;;;;;5031789;28;20063;-72
2023/10/22 01:45:31;;;;;;;7.07;1.35;;;12.90;99.90;;;;;;5031735;28;20038;-72
2023/10/22 01:47:56;;;;;;;5.72;1.23;;;12.90;99.90;;;;;;5031830;28;20049;-72
2023/10/22 01:50:22;;;;;;;5.03;1.15;;;12.80;99.90;;;;;;5031697;28;20482;-72
2023/10/22 01:52:47;;;;;;;8.20;1.17;;;12.80;99.90;;;;;;5031966;28;20037;-72
2023/10/22 01:55:13;;;;;;;5.63;1.00;;;12.70;99.90;;;;;;5031673;28;20490;-72
2023/10/22 01:57:39;;;;;;;5.20;0.90;;;12.70;99.90;;;;;;5031829;28;20029;-72
2023/10/22 02:00:10;;;;;;;5.32;1.15;;;12.70;99.90;;;;;;5031601;28;20515;-72
2023/10/22 02:02:36;;;;;;;5.35;0.80;;;12.70;99.90;;;;;;5031658;28;20482;-72
2023/10/22 02:05:03;;;;;;;3.42;0.95;;;12.60;99.90;;;;;;5031529;28;20045;-72
2023/10/22 02:07:29;;;;;;;4.55;1.00;;;12.60;99.90;;;;;;5031499;28;20041;-71
2023/10/22 02:09:55;;;;;;;5.65;0.98;;;12.60;99.90;;;;;;5031546;28;20030;-71
2023/10/22 02:12:30;;;;;;;6.95;0.95;;;12.60;99.90;;;;;;5031518;28;20045;-71
2023/10/22 02:14:56;;;;;;;4.90;0.90;;;12.50;99.90;;;;;;5033287;28;20045;-71
2023/10/22 02:17:21;;;;;;;5.90;0.80;;;12.50;99.90;;;;;;5035609;28;20150;-71
2023/10/22 02:19:47;;;;;;;5.15;1.00;;;12.50;99.90;;;;;;5035415;28;20514;-72
2023/10/22 02:22:13;;;;;;;5.20;0.93;;;12.50;99.90;;;;;;5035203;28;20041;-72
2023/10/22 02:24:42;;;;;;;5.97;1.05;;;12.50;99.90;;;;;;5035534;28;20037;-72
2023/10/22 02:27:07;;;;;;;5.10;1.42;;;12.50;99.90;;;;;;5035171;28;20124;-72
2023/10/22 02:29:34;;;;;;;5.22;1.10;;;12.50;99.90;;;;;;5018745;28;20084;-72
2023/10/22 02:31:59;;;;;;;5.78;1.38;;;12.40;99.90;;;;;;5035105;28;20038;-72
2023/10/22 02:34:25;;;;;;;5.32;1.30;;;12.40;99.90;;;;;;5035068;28;20033;-72
2023/10/22 02:36:51;;;;;;;6.10;1.20;;;12.40;99.90;;;;;;5035089;28;20042;-72
2023/10/22 02:39:16;;;;;;;5.45;1.10;;;12.40;99.90;;;;;;5034921;28;20045;-71
2023/10/22 02:41:44;;;;;;;5.70;1.52;;;12.30;99.90;;;;;;5018434;28;20083;-72
2023/10/22 02:44:10;;;;;;;3.55;1.02;;;12.30;99.90;;;;;;5035180;28;20123;-72
2023/10/22 02:46:35;;;;;;;6.35;1.30;;;12.30;99.90;;;;;;5034891;28;20541;-72
2023/10/22 02:49:01;;;;;;;8.77;1.27;;;12.30;99.90;;;;;;5034654;28;20034;-71
2023/10/22 02:51:27;;;;;;;7.18;1.08;;;12.20;99.90;;;;;;5034795;28;20041;-72
2023/10/22 02:53:52;;;;;;;4.95;1.52;;;12.20;99.90;;;;;;5034768;28;20041;-72
2023/10/22 02:56:18;;;;;;;6.35;1.27;;;12.20;99.90;;;;;;5034707;28;20080;-72
2023/10/22 02:58:43;;;;;;;4.22;0.98;;;12.20;99.90;;;;;;5034836;28;20132;-71
2023/10/22 03:01:10;;;;;;;5.72;1.00;;;12.20;99.90;;;;;;5018549;28;20040;-72
2023/10/22 03:03:39;;;;;;;5.10;1.00;;;12.20;99.90;;;;;;5018334;28;20543;-72
2023/10/22 03:06:10;;;;;;;4.53;0.90;;;12.20;99.90;;;;;;5034475;28;20037;-72
2023/10/22 03:08:37;;;;;;;4.93;1.08;;;12.20;99.90;;;;;;5034427;28;20489;-72
2023/10/22 03:11:04;;;;;;;3.35;0.93;;;12.20;99.90;;;;;;5034456;28;20120;-71
2023/10/22 03:13:31;;;;;;;4.45;0.82;;;12.20;99.90;;;;;;5017946;28;20048;-72
2023/10/22 03:15:59;;;;;;;4.15;0.88;;;12.20;99.90;;;;;;5034541;28;20494;-72
2023/10/22 03:18:25;;;;;;;4.38;0.80;;;12.30;99.90;;;;;;5034419;28;20037;-72
2023/10/22 03:20:50;;;;;;;3.75;0.90;;;12.30;99.90;;;;;;5034190;28;20524;-72
2023/10/22 03:23:16;;;;;;;5.38;1.20;;;12.30;99.90;;;;;;5034211;28;20040;-72
2023/10/22 03:25:43;;;;;;;4.45;0.90;;;12.30;99.90;;;;;;5033331;28;20069;-72
2023/10/22 03:28:09;;;;;;;9.50;1.10;;;12.30;99.90;;;;;;5033862;28;20452;-71
2023/10/22 03:30:38;;;;;;;9.48;1.00;;;12.30;99.90;;;;;;5034115;28;20037;-71
2023/10/22 03:33:05;;;;;;;4.45;0.90;;;12.30;99.90;;;;;;5034043;28;20133;-72
2023/10/22 03:35:31;;;;;;;5.72;1.20;;;12.30;99.90;;;;;;5034264;28;20039;-72
2023/10/22 03:37:58;;;;;;;4.72;0.98;;;12.30;99.90;;;;;;5033842;28;20091;-71
2023/10/22 03:40:24;;;;;;;9.45;1.10;;;12.30;99.90;;;;;;5033819;28;20053;-72
2023/10/22 03:42:50;;;;;;;4.57;0.98;;;12.30;99.90;;;;;;5017350;28;20109;-72
2023/10/22 03:45:15;;;;;;;4.85;1.00;;;12.30;99.90;;;;;;5034034;28;20049;-72
2023/10/22 03:47:41;;;;;;;5.72;1.10;;;12.30;99.90;;;;;;5017463;28;20520;-72
2023/10/22 03:50:07;;;;;;;5.50;1.00;;;12.30;99.90;;;;;;5033722;28;20035;-72
2023/10/22 03:52:33;;;;;;;5.45;0.90;;;12.30;99.90;;;;;;5033869;28;20041;-72
2023/10/22 03:54:58;;;;;;;2.22;0.85;;;12.30;99.90;;;;;;5033607;28;20102;-72
2023/10/22 03:57:25;;;;;;;3.63;1.10;;;12.30;99.90;;;;;;5033721;28;20061;-72
2023/10/22 03:59:51;;;;;;;6.80;1.00;;;12.30;99.90;;;;;;5033553;28;20044;-72
2023/10/22 04:02:16;;;;;;;4.68;0.90;;;12.30;99.90;;;;;;5034241;28;20042;-72
2023/10/22 04:04:42;;;;;;;3.90;0.80;;;12.30;99.90;;;;;;5016943;28;20413;-71
2023/10/22 04:07:08;;;;;;;4.88;0.93;;;12.30;99.90;;;;;;5033312;28;20033;-71
2023/10/22 04:09:33;;;;;;;2.05;0.80;;;12.30;99.90;;;;;;5017112;28;20040;-72
2023/10/22 04:11:59;;;;;;;2.33;1.10;;;12.30;99.90;;;;;;5033298;28;20413;-72
2023/10/22 04:14:24;;;;;;;3.55;0.88;;;12.20;99.90;;;;;;5033264;28;20044;-72
2023/10/22 04:16:50;;;;;;;2.47;1.00;;;12.20;99.90;;;;;;5033462;28;20041;-72
2023/10/22 04:19:16;;;;;;;2.90;0.95;;;12.20;99.90;;;;;;5033086;28;20560;-72
2023/10/22 04:21:42;;;;;;;4.60;0.80;;;12.20;99.90;;;;;;5033057;28;20038;-72
2023/10/22 04:24:08;;;;;;;2.05;0.85;;;12.20;99.90;;;;;;5033326;28;20037;-72
2023/10/22 04:26:33;;;;;;;2.15;0.95;;;12.20;99.90;;;;;;5032974;28;20502;-71
2023/10/22 04:29:00;;;;;;;3.63;1.52;;;12.20;99.90;;;;;;5032876;28;20045;-72
2023/10/22 04:31:26;;;;;;;2.70;1.02;;;12.20;99.90;;;;;;5032910;28;20052;-72
2023/10/22 04:33:53;;;;;;;3.22;1.20;;;12.20;99.90;;;;;;5032839;28;20136;-72
2023/10/22 04:36:21;;;;;;;5.10;1.20;;;12.20;99.90;;;;;;5032819;28;20045;-71
2023/10/22 04:38:50;;;;;;;3.58;1.50;;;12.20;99.90;;;;;;5016046;28;20075;-72
2023/10/22 04:41:16;;;;;;;2.92;1.30;;;12.20;99.90;;;;;;5016290;28;20038;-72
2023/10/22 04:43:42;;;;;;;3.20;1.40;;;12.20;99.90;;;;;;5032709;28;20041;-72
2023/10/22 04:46:09;;;;;;;2.33;1.10;;;12.20;99.90;;;;;;5032925;28;20151;-72
2023/10/22 04:48:34;;;;;;;1.90;1.38;;;12.20;99.90;;;;;;5032464;28;20087;-71
2023/10/22 04:51:07;;;;;;;4.72;1.90;;;12.30;99.90;;;;;;5032833;28;20124;-72
2023/10/22 04:53:34;;;;;;;3.53;1.73;;;12.20;99.90;;;;;;5032553;28;20046;-72
2023/10/22 04:56:00;;;;;;;5.28;1.55;;;12.20;99.90;;;;;;5016034;28;20052;-72
2023/10/22 04:58:27;;;;;;;5.18;1.85;;;12.20;99.90;;;;;;5032584;28;20041;-71
2023/10/22 05:00:54;;;;;;;2.28;1.63;;;12.20;99.90;;;;;;5032580;28;20037;-72
2023/10/22 05:03:20;;;;;;;2.63;1.30;;;12.10;99.90;;;;;;5032410;28;20045;-72
2023/10/22 05:05:46;;;;;;;3.65;1.17;;;12.20;99.90;;;;;;5032583;28;20029;-72
2023/10/22 05:08:11;;;;;;;3.17;1.20;;;12.20;99.90;;;;;;5032476;28;20077;-72
2023/10/22 05:10:38;;;;;;;1.95;1.20;;;12.20;99.90;;;;;;5015833;28;20080;-72
2023/10/22 05:13:04;;;;;;;4.13;1.10;;;12.20;99.90;;;;;;5032462;28;20132;-72
2023/10/22 05:15:30;;;;;;;2.40;1.35;;;12.30;99.90;;;;;;5032130;28;20044;-72
2023/10/22 05:17:57;;;;;;;2.15;1.15;;;12.30;99.90;;;;;;5032046;28;20041;-72
2023/10/22 05:20:27;;;;;;;3.75;1.50;;;12.20;99.90;;;;;;5032236;28;20045;-72
2023/10/22 05:22:53;;;;;;;3.72;1.27;;;12.30;99.90;;;;;;5032032;28;20038;-72
2023/10/22 05:25:20;;;;;;;2.75;1.50;;;12.20;99.90;;;;;;5015630;28;20034;-72
2023/10/22 05:27:46;;;;;;;3.63;1.80;;;12.20;99.90;;;;;;5031896;28;20077;-72
2023/10/22 05:30:13;;;;;;;2.42;1.65;;;12.30;99.90;;;;;;5032215;28;20095;-71
2023/10/22 05:32:38;;;;;;;2.20;1.70;;;12.30;99.90;;;;;;5032203;28;20045;-71
2023/10/22 05:35:04;;;;;;;2.38;1.63;;;12.30;99.90;;;;;;5015461;28;20433;-72
2023/10/22 05:37:30;;;;;;;1.88;1.30;;;12.30;99.90;;;;;;5031775;28;20033;-71
2023/10/22 05:39:59;;;;;;;1.30;1.08;;;12.40;99.90;;;;;;5032258;28;20049;-71
2023/10/22 05:42:25;;;;;;;2.17;1.30;;;12.30;99.90;;;;;;5031730;28;20045;-71
2023/10/22 05:44:51;;;;;;;2.15;1.25;;;12.30;99.90;;;;;;5031775;28;20040;-71
2023/10/22 05:47:16;;;;;;;1.40;0.90;;;12.40;99.90;;;;;;5031611;28;20175;-72
2023/10/22 05:49:43;;;;;;;1.27;1.05;;;12.40;99.90;;;;;;5035234;28;20120;-72
2023/10/22 05:52:09;;;;;;;1.13;0.70;;;12.40;99.90;;;;;;5038632;28;20041;-72
2023/10/22 05:54:35;;;;;;;2.10;0.50;;;12.40;99.90;;;;;;5038617;28;20049;-72
2023/10/22 05:57:01;;;;;;;1.25;0.50;;;12.50;99.90;;;;;;5038257;28;20041;-72
2023/10/22 05:59:27;;;;;;;3.25;0.40;;;12.50;99.90;;;;;;5038302;28;20037;-71
2023/10/22 06:01:52;;;;;;;1.30;0.30;;;12.50;99.90;;;;;;5038135;28;20037;-72
2023/10/22 06:04:18;;;;;;;1.85;0.40;;;12.50;99.90;;;;;;5038256;28;20069;-72
2023/10/22 06:06:43;;;;;;;1.13;0.40;;;12.50;99.90;;;;;;5038278;28;20540;-72
2023/10/22 06:09:11;;;;;;;5.90;0.75;;;12.50;99.90;;;;;;5038414;28;20045;-72
2023/10/22 06:11:38;;;;;;;3.42;0.60;;;12.40;99.90;;;;;;5038197;28;20084;-72
2023/10/22 06:14:04;;;;;;;3.38;0.70;;;12.30;99.90;;;;;;5038432;28;20042;-72
2023/10/22 06:16:31;;;;;;;4.68;0.60;;;12.30;99.90;;;;;;5038104;28;20087;-72
2023/10/22 06:18:57;;;;;;;6.95;0.82;;;12.30;99.90;;;;;;5038339;28;20118;-72
2023/10/22 06:21:22;;;;;;;4.45;0.75;;;12.20;99.90;;;;;;5021478;28;20498;-73
2023/10/22 06:23:49;;;;;;;6.13;0.90;;;12.20;99.90;;;;;;5038075;28;20087;-72
2023/10/22 06:26:15;;;;;;;5.28;0.80;;;12.20;99.90;;;;;;5038088;28;20041;-73
2023/10/22 06:28:41;;;;;;;5.78;0.90;;;12.10;99.90;;;;;;5038252;28;20044;-73
2023/10/22 06:31:08;;;;;;;5.60;0.93;;;12.10;99.90;;;;;;5038012;28;20033;-73
2023/10/22 06:33:35;;;;;;;4.70;0.70;;;12.10;99.90;;;;;;5038016;28;20124;-72
2023/10/22 06:36:21;;;;;;;3.45;0.75;;;12.10;99.90;;;;;;5038052;28;20077;-71
2023/10/22 06:38:48;;;;;;;7.40;0.93;;;12.10;99.90;;;;;;5037932;28;20501;-71
2023/10/22 06:41:22;;;;;;;5.95;1.10;;;12.10;99.90;;;;;;5037900;28;20055;-72
2023/10/22 06:43:48;;;;;;;5.50;1.00;;;12.10;99.90;;;;;;5038196;28;20072;-71
2023/10/22 06:46:14;;;;;;;5.47;1.05;;;12.10;99.90;;;;;;5037925;28;20560;-71
2023/10/22 06:48:42;;;;;;;4.53;0.82;;;12.10;99.90;;;;;;5037739;28;20040;-72
2023/10/22 06:51:10;;;;;;;4.82;1.02;;;12.10;99.90;;;;;;5037854;28;20136;-72
2023/10/22 06:53:37;;;;;;;5.05;1.10;;;12.10;99.90;;;;;;5037779;28;20128;-72
2023/10/22 06:56:03;;;;;;;3.60;0.68;;;12.10;99.90;;;;;;5037814;28;20052;-72
2023/10/22 06:58:29;;;;;;;4.82;0.57;;;12.00;99.90;;;;;;5037657;28;20128;-71
2023/10/22 07:01:09;;;;;;;3.90;1.20;;;12.00;99.90;;;;;;5036214;28;20129;-71
2023/10/22 07:03:37;;;;;;;4.55;1.00;;;12.00;99.90;;;;;;5034623;28;20482;-71
2023/10/22 07:06:03;;;;;;;5.50;1.40;;;12.00;99.90;;;;;;5018132;28;20112;-71
2023/10/22 07:08:29;;;;;;;3.50;1.27;;;12.00;99.90;;;;;;5034478;28;20506;-71
2023/10/22 07:10:56;;;;;;;8.07;1.90;;;11.90;99.90;;;;;;5034489;28;20059;-71
2023/10/22 07:13:23;;;;;;;8.23;1.65;;;11.90;99.90;;;;;;5034463;28;20041;-72
2023/10/22 07:15:49;;;;;;;6.97;2.08;;;11.90;99.90;;;;;;5034440;28;20037;-72
2023/10/22 07:18:15;;;;;;;9.07;2.70;;;11.90;99.90;;;;;;5034523;28;20120;-71
2023/10/22 07:20:40;;;;;;;9.85;2.85;;;11.90;99.90;;;;;;5034270;28;20049;-72
2023/10/22 07:23:06;;;;;;;10.88;2.58;;;11.90;99.90;;;;;;5034258;28;20049;-72
2023/10/22 07:25:33;;;;;;;10.45;2.78;;;11.80;99.90;;;;;;5034223;28;20494;-72
2023/10/22 07:27:59;;;;;;;9.95;3.22;;;11.90;99.90;;;;;;5034090;28;20099;-71
2023/10/22 07:30:24;;;;;;;11.75;3.15;;;11.80;99.90;;;;;;5035357;28;20041;-71
2023/10/22 07:32:53;;;;;;;8.80;3.05;;;11.90;99.90;;;;;;5034405;28;20045;-71
2023/10/22 07:35:20;;;;;;;11.07;2.88;;;11.90;99.90;;;;;;5034291;28;20064;-71
2023/10/22 07:37:45;;;;;;;12.63;3.08;;;11.90;99.90;;;;;;5034434;28;20052;-71
2023/10/22 07:40:13;;;;;;;11.73;2.88;;;11.90;99.90;;;;;;5033981;28;20037;-71
2023/10/22 07:42:42;;;;;;;7.60;2.45;;;11.90;99.90;;;;;;5034005;28;20076;-71
2023/10/22 07:45:09;;;;;;;7.95;2.75;;;11.90;99.90;;;;;;5034245;28;20041;-72
2023/10/22 07:47:35;;;;;;;9.90;2.53;;;11.90;99.90;;;;;;5033671;28;20540;-72
2023/10/22 07:50:02;;;;;;;7.90;2.50;;;11.90;99.90;;;;;;5033796;28;20042;-72
2023/10/22 07:52:30;;;;;;;8.30;2.20;;;11.90;99.90;;;;;;5034009;28;20151;-72
2023/10/22 07:54:55;;;;;;;6.22;2.05;;;11.90;99.90;;;;;;5033727;28;20045;-72
2023/10/22 07:57:21;;;;;;;8.13;2.53;;;11.80;99.90;;;;;;5033561;28;20037;-72
2023/10/22 07:59:47;;;;;;;10.68;2.03;;;11.90;99.90;;;;;;5033622;28;20060;-72
2023/10/22 08:02:12;;;;;;;9.13;2.10;;;11.90;99.90;;;;;;5033574;28;20053;-72
2023/10/22 08:04:38;;;;;;;10.25;2.53;;;11.90;99.90;;;;;;5017055;28;20387;-72
2023/10/22 08:07:04;;;;;;;6.93;2.10;;;11.90;99.90;;;;;;5033819;28;20056;-71
2023/10/22 08:09:30;;;;;;;9.95;2.83;;;12.00;99.90;;;;;;5033828;28;20128;-72
2023/10/22 08:11:56;;;;;;;8.93;2.25;;;12.00;99.90;;;;;;5033091;28;20045;-72
2023/10/22 08:14:22;;;;;;;6.85;2.50;;;12.00;99.90;;;;;;5017109;28;20038;-75
2023/10/22 08:16:49;;;;;;;6.97;2.20;;;12.00;99.90;;;;;;5034024;28;20052;-75
2023/10/22 08:19:14;;;;;;;8.43;1.90;;;12.00;99.90;;;;;;5033174;28;20086;-75
2023/10/22 08:21:40;;;;;;;7.00;1.90;;;12.00;99.90;;;;;;5033145;28;20050;-75
2023/10/22 08:24:06;;;;;;;7.15;1.85;;;12.00;99.90;;;;;;5033142;28;20044;-75
2023/10/22 08:26:32;;;;;;;8.38;1.90;;;12.10;99.90;;;;;;5016697;28;20120;-75
2023/10/22 08:28:57;;;;;;;6.38;1.90;;;12.10;99.90;;;;;;5033056;28;20124;-75
2023/10/22 08:31:23;;;;;;;5.88;1.65;;;12.20;99.90;;;;;;5033064;28;20056;-75
2023/10/22 08:33:49;;;;;;;6.65;2.00;;;12.30;99.90;;;;;;5032940;28;20038;-75
2023/10/22 08:36:15;;;;;;;7.18;2.03;;;12.30;99.90;;;;;;5033201;28;20041;-76
2023/10/22 08:38:41;;;;;;;8.50;1.60;;;12.30;99.90;;;;;;5032825;28;20413;-75
2023/10/22 08:41:17;;;;;;;6.82;2.47;;;12.40;99.90;;;;;;5016277;28;20038;-75
2023/10/22 08:43:44;;;;;;;6.78;1.80;;;12.40;99.90;;;;;;5016333;28;20037;-75
2023/10/22 08:46:10;;;;;;;8.13;1.90;;;12.50;99.90;;;;;;5016276;28;20122;-75
2023/10/22 08:48:37;;;;;;;8.35;2.10;;;12.60;99.90;;;;;;5016271;28;20076;-74
2023/10/22 08:51:04;;;;;;;4.50;1.80;;;12.60;99.90;;;;;;5032911;28;20045;-74
2023/10/22 08:53:29;;;;;;;7.38;2.33;;;13.00;99.90;;;;;;5016074;28;20494;-75
2023/10/22 08:55:56;;;;;;;6.72;1.90;;;13.60;99.90;;;;;;5032517;28;20053;-75
2023/10/22 08:58:22;;;;;;;7.15;1.77;;;14.80;99.90;;;;;;5032540;28;20048;-75
2023/10/22 09:00:49;;;;;;;9.90;1.70;;;15.60;99.90;;;;;;5032424;28;20172;-75
2023/10/22 09:03:16;;;;;;;5.32;1.35;;;15.80;99.90;;;;;;5032528;28;20123;-75
2023/10/22 09:05:43;;;;;;;6.60;1.75;;;15.70;99.90;;;;;;5015899;28;20421;-76
2023/10/22 09:08:09;;;;;;;6.63;1.42;;;15.30;99.90;;;;;;5015804;28;20064;-76
2023/10/22 09:10:36;;;;;;;6.15;1.40;;;14.90;99.90;;;;;;5032322;28;20037;-76
2023/10/22 09:13:16;;;;;;;6.90;2.00;;;14.70;99.90;;;;;;5032261;28;20033;-76
2023/10/22 09:15:44;;;;;;;3.25;1.08;;;14.90;99.90;;;;;;5032270;28;20406;-76
2023/10/22 09:18:10;;;;;;;6.30;1.60;;;14.90;99.90;;;;;;5015714;28;20038;-76
2023/10/22 09:20:36;;;;;;;5.53;1.40;;;14.80;99.90;;;;;;5032329;28;20057;-76
2023/10/22 09:23:14;;;;;;;9.40;1.30;;;14.60;99.90;;;;;;5032168;28;20033;-76
2023/10/22 09:25:43;;;;;;;7.78;1.35;;;14.50;99.90;;;;;;5031778;28;20041;-76
2023/10/22 09:28:29;;;;;;;5.55;1.55;;;14.50;99.90;;;;;;5031971;28;20034;-76
2023/10/22 09:31:00;;;;;;;5.93;1.67;;;14.50;99.90;;;;;;5032317;28;20077;-76
2023/10/22 09:33:37;;;;;;;5.90;1.38;;;14.30;99.90;;;;;;5031953;28;20084;-76
2023/10/22 09:36:06;;;;;;;3.78;1.38;;;14.40;99.90;;;;;;5032023;28;20088;-76
2023/10/22 09:38:45;;;;;;;6.47;2.08;;;14.80;99.90;;;;;;5031851;28;20041;-76
2023/10/22 09:41:23;;;;;;;5.32;1.20;;;15.70;99.90;;;;;;5031796;28;20037;-76
2023/10/22 09:43:50;;;;;;;5.90;1.02;;;16.30;99.90;;;;;;5032152;28;20559;-76
2023/10/22 09:46:18;;;;;;;5.63;1.30;;;16.70;99.90;;;;;;5031806;28;20041;-76
2023/10/22 09:48:47;;;;;;;7.20;1.38;;;16.90;99.90;;;;;;5015243;28;20046;-76
2023/10/22 09:51:15;;;;;;;5.22;1.20;;;17.40;99.90;;;;;;5031806;28;20045;-76
2023/10/22 09:53:50;;;;;;;4.55;0.80;;;17.70;99.90;;;;;;5031720;28;20409;-76
2023/10/22 09:56:19;;;;;;;3.90;0.73;;;17.90;99.90;;;;;;5031787;28;20084;-76
2023/10/22 09:58:48;;;;;;;8.18;1.05;;;18.00;99.90;;;;;;5031659;28;20496;-76
2023/10/22 10:01:14;;;;;;;3.90;0.95;;;18.00;99.90;;;;;;5031852;28;20047;-76
2023/10/22 10:03:43;;;;;;;12.63;1.17;;;17.50;99.90;;;;;;5015242;28;20479;-76
2023/10/22 10:06:09;;;;;;;4.72;1.00;;;17.10;99.90;;;;;;5015566;28;20045;-76
2023/10/22 10:08:37;;;;;;;4.57;0.85;;;16.70;99.90;;;;;;5031931;28;20041;-77
2023/10/22 10:11:08;;;;;;;5.47;1.10;;;16.40;99.90;;;;;;5032306;28;20041;-76
2023/10/22 10:13:37;;;;;;;4.82;1.00;;;16.20;99.90;;;;;;5015207;28;20037;-77
2023/10/22 10:16:07;;;;;;;11.50;1.25;;;15.90;99.90;;;;;;5015127;28;20069;-77
2023/10/22 10:18:57;;;;;;;4.43;0.70;;;15.60;99.90;;;;;;5031771;28;20176;-77
2023/10/22 10:21:47;;;;;;;2.60;0.60;;;15.20;99.90;;;;;;5031497;28;20037;-76
2023/10/22 10:24:26;;;;;;;1.95;0.50;;;14.80;99.90;;;;;;5031589;28;20037;-76
2023/10/22 10:26:56;;;;;;;4.18;0.60;;;14.70;99.90;;;;;;5031471;28;20037;-76
2023/10/22 10:29:25;;;;;;;3.45;0.70;;;14.70;99.90;;;;;;5031756;28;20129;-76
2023/10/22 10:31:53;;;;;;;3.85;0.68;;;14.60;99.90;;;;;;5031451;28;20037;-76
2023/10/22 10:34:43;;;;;;;5.43;1.02;;;14.50;99.90;;;;;;5031436;28;20064;-75
2023/10/22 10:37:16;;;;;;;2.88;0.70;;;14.50;99.90;;;;;;5035158;28;20037;-76
2023/10/22 10:39:44;;;;;;;2.85;0.70;;;14.30;99.90;;;;;;5035410;28;20095;-76
2023/10/22 10:42:11;;;;;;;3.60;0.80;;;14.20;99.90;;;;;;5035127;28;20052;-76
2023/10/22 10:44:57;;;;;;;2.70;0.52;;;14.10;99.90;;;;;;5018531;28;20116;-76
2023/10/22 10:47:27;;;;;;;5.10;0.90;;;14.10;99.90;;;;;;5035070;28;20052;-76
2023/10/22 10:50:03;;;;;;;3.65;0.77;;;14.00;99.90;;;;;;5035758;28;20064;-76
2023/10/22 10:52:42;;;;;;;4.68;0.93;;;13.90;99.90;;;;;;5034890;28;20092;-76
2023/10/22 10:55:19;;;;;;;5.43;0.70;;;13.80;99.90;;;;;;5034915;28;20476;-76
2023/10/22 10:57:49;;;;;;;5.03;0.70;;;13.90;99.90;;;;;;5034786;28;20041;-76
2023/10/22 11:00:19;;;;;;;1.88;0.70;;;15.10;99.90;;;;;;5034807;28;20049;-76
2023/10/22 11:02:47;;;;;;;2.45;0.50;;;16.50;99.90;;;;;;5034684;28;20478;-76
2023/10/22 11:05:14;;;;;;;4.07;0.75;;;18.20;99.90;;;;;;5018097;28;20387;-76
2023/10/22 11:07:42;;;;;;;5.47;0.88;;;19.80;99.90;;;;;;5018008;28;20120;-76
2023/10/22 11:10:11;;;;;;;4.47;0.80;;;20.90;99.20;;;;;;5034569;28;20494;-76
2023/10/22 11:12:38;;;;;;;3.55;0.90;;;20.60;97.40;;;;;;5018003;28;20112;-76
2023/10/22 11:15:04;;;;;;;4.40;0.98;;;19.50;98.60;;;;;;5034717;28;20115;-76
2023/10/22 11:17:30;;;;;;;4.68;1.00;;;18.40;99.90;;;;;;5034636;28;20049;-76
2023/10/22 11:19:57;;;;;;;3.65;1.00;;;18.00;99.90;;;;;;5034413;28;20037;-76
2023/10/22 11:22:23;;;;;;;2.72;1.13;;;17.70;99.90;;;;;;5034272;28;20042;-76
2023/10/22 11:24:50;;;;;;;5.55;1.30;;;18.10;99.90;;;;;;5017811;28;20088;-76
2023/10/22 11:27:16;;;;;;;3.97;1.00;;;19.20;99.90;;;;;;5034437;28;21626;-76
2023/10/22 11:29:49;;;;;;;6.38;1.40;;;20.60;99.50;;;;;;5034801;28;20087;-77
2023/10/22 11:32:19;;;;;;;;;;;21.80;96.30;;;;;;5018097;28;20508;-76
2023/10/22 11:35:04;;;;;;;4.20;1.48;;;22.70;94.50;;;;;;5034249;28;19917;-76
2023/10/22 11:37:43;;;;;;;4.20;1.30;;;23.50;90.40;;;;;;5034005;28;20120;-76
2023/10/22 11:40:27;;;;;;;5.50;1.10;;;23.50;84.70;;;;;;5034264;28;20038;-76
2023/10/22 11:42:53;;;;;;;3.55;0.98;;;22.60;87.70;;;;;;5033871;28;20503;-76
2023/10/22 11:45:19;;;;;;;4.68;0.90;;;21.80;91.10;;;;;;5033927;28;20041;-76
2023/10/22 11:47:45;;;;;;;2.42;0.77;;;21.10;90.90;;;;;;5016280;28;20039;-76
2023/10/22 11:50:13;;;;;;;5.28;0.70;;;20.60;91.90;;;;;;5017304;28;20120;-76
2023/10/22 11:52:51;;;;;;;4.03;0.80;;;20.00;93.30;;;;;;5033741;28;20041;-76
2023/10/22 11:55:18;;;;;;;3.55;0.68;;;19.40;95.20;;;;;;5017161;28;20037;-76
2023/10/22 11:57:45;;;;;;;1.98;0.60;;;18.70;97.80;;;;;;5033629;28;20045;-76
2023/10/22 12:00:11;;;;;;;2.65;0.90;;;18.10;99.80;;;;;;5033656;28;20045;-76
2023/10/22 12:02:38;;;;;;;3.65;0.80;;;17.70;99.90;;;;;;5033507;28;20045;-76
2023/10/22 12:05:05;;;;;;;1.98;0.90;;;18.20;99.90;;;;;;5033569;28;20037;-76
2023/10/22 12:07:31;;;;;;;4.68;0.70;;;19.10;99.90;;;;;;5033703;28;20038;-76
2023/10/22 12:09:57;;;;;;;4.55;0.68;;;19.70;99.00;;;;;;5033436;28;20043;-76
2023/10/22 12:12:23;;;;;;;5.20;0.70;;;20.00;98.00;;;;;;5017236;28;20555;-76
2023/10/22 12:14:49;;;;;;;2.40;0.60;;;20.40;96.30;;;;;;5033639;28;20045;-76
2023/10/22 12:17:16;;;;;;;3.05;0.45;;;20.60;94.80;;;;;;5033264;28;20075;-76
2023/10/22 12:19:41;;;;;;;3.28;0.88;;;20.30;94.10;;;;;;5033533;28;20045;-76
2023/10/22 12:22:07;;;;;;;3.42;0.63;;;19.70;95.00;;;;;;5033157;28;20033;-76
2023/10/22 12:24:33;;;;;;;4.50;0.75;;;19.00;96.20;;;;;;5033131;28;20042;-76
2023/10/22 12:26:59;;;;;;;2.13;0.68;;;18.60;97.40;;;;;;5016819;28;20049;-76
2023/10/22 12:29:25;;;;;;;4.72;0.90;;;18.50;97.90;;;;;;5033086;28;20041;-76
2023/10/22 12:31:51;;;;;;;2.72;0.50;;;18.20;98.40;;;;;;5033250;28;20038;-76
2023/10/22 12:34:16;;;;;;;1.77;0.47;;;17.90;99.40;;;;;;5033254;28;20076;-76
2023/10/22 12:36:42;;;;;;;3.38;0.63;;;17.70;99.90;;;;;;5032964;28;20472;-76
2023/10/22 12:39:07;;;;;;;4.85;0.77;;;17.30;99.90;;;;;;5016620;28;20087;-75
2023/10/22 12:41:34;;;;;;;1.95;0.57;;;16.90;99.90;;;;;;5032814;28;20387;-76
2023/10/22 12:44:00;;;;;;;3.30;0.40;;;16.70;99.90;;;;;;5032787;28;20550;-76
2023/10/22 12:46:25;;;;;;;3.15;0.40;;;16.70;99.90;;;;;;5032747;28;20045;-76
2023/10/22 12:48:52;;;;;;;4.07;0.90;;;16.70;99.90;;;;;;5032832;28;20084;-76